This is the latest recevied weather packets stored in our database for station/object K6POO-1. If no packets are shown the sender has not sent any weather packets the latest 10 day(s).
| Time | Temp. | Humidity | Pressure | Rain* | Wind** | Luminosity | Snow |
|---|---|---|---|---|---|---|---|
| 1778032728 | 14.44° C | 80% | 1016.2 hPa | 0 mm | - | 45 W/m² | - |
| 1778032426 | 14.44° C | 79% | 1016.2 hPa | 0 mm | - | 48 W/m² | - |
| 1778032122 | 15° C | 77% | 1016.2 hPa | 0 mm | - | 51 W/m² | - |
| 1778031819 | 15° C | 75% | 1016.4 hPa | 0 mm | - | 53 W/m² | - |
| 1778031515 | 16.11° C | 73% | 1015.9 hPa | 0 mm | - | 58 W/m² | - |
| 1778031213 | 15.56° C | 74% | 1016.3 hPa | 0 mm | - | 83 W/m² | - |
| 1778030909 | 15.56° C | 74% | 1016.4 hPa | 0 mm | - | 70 W/m² | - |
| 1778030607 | 16.11° C | 71% | 1016.2 hPa | 0 mm | - | 64 W/m² | - |
| 1778030304 | 16.11° C | 73% | 1016.2 hPa | 0 mm | - | 121 W/m² | - |
| 1778030000 | 15.56° C | 75% | 1016.3 hPa | 0 mm | - | 145 W/m² | - |
| 1778029698 | 16.11° C | 72% | 1016.4 hPa | 0 mm | - | 84 W/m² | - |
| 1778029395 | 16.11° C | 72% | 1016.2 hPa | 0 mm | - | 198 W/m² | - |
| 1778029092 | 15.56° C | 72% | 1016.2 hPa | 0 mm | - | 244 W/m² | - |
| 1778028789 | 16.67° C | 70% | 1016.1 hPa | 0 mm | - | 274 W/m² | - |
| 1778028485 | 16.67° C | 70% | 1016 hPa | 0 mm | - | 319 W/m² | - |
| 1778028183 | 16.11° C | 71% | 1016.2 hPa | 0 mm | - | 280 W/m² | - |
| 1778027879 | 16.11° C | 70% | 1016.1 hPa | 0 mm | - | 367 W/m² | - |
| 1778027576 | 15.56° C | 72% | 1016 hPa | 0 mm | - | 224 W/m² | - |
| 1778027272 | 15.56° C | 74% | 1016.1 hPa | 0 mm | - | 228 W/m² | - |
| 1778026968 | 15.56° C | 72% | 1016 hPa | 0 mm | - | 245 W/m² | - |
| 1778026664 | 15.56° C | 72% | 1015.8 hPa | 0 mm | - | 248 W/m² | - |
| 1778026362 | 15.56° C | 72% | 1015.8 hPa | 0 mm | - | 261 W/m² | - |
| 1778026058 | 16.11° C | 70% | 1015.8 hPa | 0 mm | - | 258 W/m² | - |
| 1778025756 | 15.56° C | 71% | 1015.9 hPa | 0 mm | - | 272 W/m² | - |
| 1778025452 | 15.56° C | 72% | 1015.8 hPa | 0 mm | - | 255 W/m² | - |
* Rain latest hour (hover to see other rain measurements)
** Current wind speed in m/s (hover to see current wind gust speed)